createdAt,value
2022-10-14T00:00:12.795Z,12.80
2022-10-14T00:02:44.483Z,12.82
2022-10-14T00:05:15.259Z,12.85
2022-10-14T00:07:46.043Z,12.86
2022-10-14T00:10:16.897Z,12.89
2022-10-14T00:12:48.733Z,12.94
2022-10-14T00:15:20.200Z,12.97
2022-10-14T00:17:50.554Z,13.02
2022-10-14T00:20:20.798Z,13.09
2022-10-14T00:22:51.978Z,13.16
2022-10-14T00:25:24.299Z,13.20
2022-10-14T00:27:55.202Z,13.25
2022-10-14T00:30:25.824Z,13.31
2022-10-14T00:32:59.195Z,13.35
2022-10-14T00:35:30.644Z,13.40
2022-10-14T00:38:01.772Z,13.46
2022-10-14T00:40:32.145Z,13.53
2022-10-14T00:43:02.724Z,13.60
2022-10-14T00:45:32.967Z,13.67
2022-10-14T00:48:03.792Z,13.69
2022-10-14T00:50:34.705Z,13.76
2022-10-14T00:53:05.852Z,13.83
2022-10-14T00:55:36.455Z,13.91
2022-10-14T00:58:08.788Z,14.00
2022-10-14T01:00:41.772Z,14.09
2022-10-14T01:03:20.620Z,14.15
2022-10-14T01:06:06.352Z,14.20
2022-10-14T01:08:45.436Z,14.27
2022-10-14T01:11:39.906Z,14.34
2022-10-14T01:14:34.754Z,14.45
2022-10-14T01:17:21.199Z,14.53
2022-10-14T01:20:21.652Z,14.61
2022-10-14T01:23:19.373Z,14.68
2022-10-14T01:26:07.757Z,14.76
2022-10-14T01:29:04.780Z,14.84
2022-10-14T01:31:42.075Z,14.88
2022-10-14T01:34:16.621Z,14.94
2022-10-14T01:36:54.047Z,15.03
2022-10-14T01:39:39.796Z,15.09
2022-10-14T01:42:22.322Z,15.16
2022-10-14T01:44:56.024Z,15.25
2022-10-14T01:47:29.724Z,15.31
2022-10-14T01:50:08.873Z,15.36
2022-10-14T01:52:50.724Z,15.43
2022-10-14T01:55:26.373Z,15.47
2022-10-14T01:57:59.748Z,15.52
2022-10-14T02:00:33.033Z,15.60
2022-10-14T02:03:04.424Z,15.67
2022-10-14T02:06:03.598Z,15.73
2022-10-14T02:09:05.495Z,15.82
2022-10-14T02:12:10.590Z,15.90
2022-10-14T02:15:07.027Z,15.98
2022-10-14T02:17:50.135Z,16.06
2022-10-14T02:21:06.433Z,16.09
2022-10-14T02:23:47.681Z,16.16
2022-10-14T02:26:19.786Z,16.19
2022-10-14T02:28:52.554Z,16.25
2022-10-14T02:31:24.932Z,16.24
2022-10-14T02:33:59.824Z,16.34
2022-10-14T02:36:33.120Z,16.38
2022-10-14T02:39:12.646Z,16.39
2022-10-14T02:41:43.120Z,16.42
2022-10-14T02:44:13.709Z,16.45
2022-10-14T02:46:45.301Z,16.51
2022-10-14T02:49:15.781Z,16.56
2022-10-14T02:51:47.062Z,16.60
2022-10-14T02:54:17.643Z,16.65
2022-10-14T02:56:47.363Z,16.72
2022-10-14T02:59:17.454Z,16.76
2022-10-14T03:01:47.650Z,16.81
2022-10-14T03:04:18.034Z,16.90
2022-10-14T03:06:48.651Z,16.96
2022-10-14T03:09:18.897Z,17.00
2022-10-14T03:11:51.575Z,17.06
2022-10-14T03:14:23.521Z,17.08
2022-10-14T03:16:54.486Z,17.13
2022-10-14T03:19:27.622Z,17.17
2022-10-14T03:21:58.923Z,17.21
2022-10-14T03:24:29.679Z,17.25
2022-10-14T03:27:23.137Z,17.28
2022-10-14T03:29:58.421Z,17.31
2022-10-14T03:32:28.643Z,17.38
2022-10-14T03:35:37.320Z,17.44
2022-10-14T03:38:12.340Z,17.48
2022-10-14T03:40:43.336Z,17.52
2022-10-14T03:43:15.870Z,17.56
2022-10-14T03:45:57.962Z,17.59
2022-10-14T03:48:29.205Z,17.63
2022-10-14T03:51:00.774Z,17.66
2022-10-14T03:53:32.610Z,17.70
2022-10-14T03:56:03.184Z,17.73
2022-10-14T03:58:34.806Z,17.77
2022-10-14T04:01:12.026Z,17.82
2022-10-14T04:04:00.468Z,17.86
2022-10-14T04:06:32.886Z,17.90
2022-10-14T04:09:07.167Z,17.93
2022-10-14T04:11:41.251Z,17.96
2022-10-14T04:14:17.995Z,18.01
2022-10-14T04:16:52.284Z,18.02
2022-10-14T04:19:23.236Z,18.08
2022-10-14T04:21:54.091Z,18.12
2022-10-14T04:24:26.443Z,18.17
2022-10-14T04:27:01.242Z,18.17
2022-10-14T04:29:57.245Z,18.21
2022-10-14T04:32:32.043Z,18.24
2022-10-14T04:35:03.431Z,18.25
2022-10-14T04:37:33.686Z,18.31
2022-10-14T04:40:14.732Z,18.32
2022-10-14T04:42:49.507Z,18.36
2022-10-14T04:45:27.383Z,18.37
2022-10-14T04:48:03.195Z,18.41
2022-10-14T04:50:37.911Z,18.44
2022-10-14T04:53:43.111Z,18.48
2022-10-14T04:56:26.322Z,18.52
2022-10-14T04:59:03.189Z,18.55
2022-10-14T05:01:53.227Z,18.60
2022-10-14T05:04:24.143Z,18.63
2022-10-14T05:06:54.949Z,18.64
2022-10-14T05:09:27.544Z,18.68
2022-10-14T05:11:58.369Z,18.72
2022-10-14T05:14:38.300Z,18.73
2022-10-14T05:17:17.631Z,18.76
2022-10-14T05:19:47.779Z,18.79
2022-10-14T05:22:19.903Z,18.83
2022-10-14T05:24:50.245Z,18.87
2022-10-14T05:27:21.445Z,18.89
2022-10-14T05:29:52.648Z,18.91
2022-10-14T05:32:22.497Z,18.95
2022-10-14T05:34:55.208Z,18.96
2022-10-14T05:37:36.192Z,19.00
2022-10-14T05:40:06.987Z,19.09
2022-10-14T05:42:39.621Z,19.15
2022-10-14T05:45:10.251Z,19.19
2022-10-14T05:47:46.998Z,19.25
2022-10-14T05:50:20.706Z,19.28
2022-10-14T05:52:51.538Z,19.31
2022-10-14T05:55:29.216Z,19.34
2022-10-14T05:58:03.525Z,19.36
2022-10-14T06:00:39.080Z,19.39
2022-10-14T06:03:14.799Z,19.40
2022-10-14T06:05:47.444Z,19.44
2022-10-14T06:08:17.915Z,19.46
2022-10-14T06:10:48.948Z,19.49
2022-10-14T06:13:19.481Z,19.51
2022-10-14T06:15:50.489Z,19.54
2022-10-14T06:18:20.595Z,19.56
2022-10-14T06:20:55.462Z,19.58
2022-10-14T06:23:26.825Z,19.61
2022-10-14T06:25:57.076Z,19.63
2022-10-14T06:28:27.702Z,19.64
2022-10-14T06:30:57.959Z,19.67
2022-10-14T06:33:30.609Z,19.71
2022-10-14T06:36:03.311Z,19.73
2022-10-14T06:38:33.556Z,19.76
2022-10-14T06:41:03.728Z,19.80
2022-10-14T06:43:33.964Z,19.82
2022-10-14T06:46:04.840Z,19.84
2022-10-14T06:48:36.131Z,19.86
2022-10-14T06:51:06.614Z,19.88
2022-10-14T06:53:37.975Z,19.89
2022-10-14T06:56:10.699Z,19.90
2022-10-14T06:58:40.993Z,19.89
2022-10-14T07:01:11.878Z,19.91
2022-10-14T07:03:42.380Z,19.92
2022-10-14T07:06:12.527Z,19.92
2022-10-14T07:08:42.812Z,19.91
2022-10-14T07:11:12.525Z,19.93
2022-10-14T07:13:42.550Z,19.91
2022-10-14T07:16:12.699Z,19.92
2022-10-14T07:18:42.930Z,19.91
2022-10-14T07:21:13.067Z,19.91
2022-10-14T07:23:43.245Z,19.92
2022-10-14T07:26:13.387Z,19.90
2022-10-14T07:28:43.839Z,19.93
2022-10-14T07:31:15.154Z,19.93
2022-10-14T07:33:45.463Z,19.92
2022-10-14T07:36:21.632Z,19.92
2022-10-14T07:38:52.984Z,19.91
2022-10-14T07:41:26.076Z,19.90
2022-10-14T07:44:03.244Z,19.89
2022-10-14T07:46:35.106Z,19.86
2022-10-14T07:49:09.235Z,19.86
2022-10-14T07:51:40.111Z,19.83
2022-10-14T07:54:14.650Z,19.82
2022-10-14T07:56:46.351Z,19.80
2022-10-14T07:59:16.727Z,19.78
2022-10-14T08:01:49.416Z,19.76
2022-10-14T08:04:20.934Z,19.74
2022-10-14T08:06:51.582Z,19.72
2022-10-14T08:09:22.471Z,19.66
2022-10-14T08:11:52.646Z,19.63
2022-10-14T08:14:23.425Z,19.60
2022-10-14T08:16:53.681Z,19.56
2022-10-14T08:19:24.087Z,19.50
2022-10-14T08:21:54.866Z,19.47
2022-10-14T08:24:25.077Z,19.41
2022-10-14T08:26:59.447Z,19.41
2022-10-14T08:29:30.622Z,19.36
2022-10-14T08:32:00.814Z,19.30
2022-10-14T08:34:31.105Z,19.28
2022-10-14T08:37:01.183Z,19.26
2022-10-14T08:39:31.345Z,19.24
2022-10-14T08:42:20.318Z,19.21
2022-10-14T08:45:02.285Z,19.16
2022-10-14T08:47:47.566Z,19.09
2022-10-14T08:50:35.833Z,19.02
2022-10-14T08:53:09.665Z,18.96
2022-10-14T08:55:46.509Z,18.89
2022-10-14T08:58:41.940Z,18.81
2022-10-14T09:01:24.319Z,18.75
2022-10-14T09:04:08.667Z,18.68
2022-10-14T09:06:42.694Z,18.62
2022-10-14T09:09:35.415Z,18.57
2022-10-14T09:12:13.451Z,18.50
2022-10-14T09:15:08.823Z,18.44
2022-10-14T09:17:56.409Z,18.38
2022-10-14T09:20:27.771Z,18.30
2022-10-14T09:23:06.860Z,18.24
2022-10-14T09:25:39.308Z,18.17
2022-10-14T09:28:11.545Z,18.11
2022-10-14T09:30:42.409Z,18.04
2022-10-14T09:33:22.385Z,17.98
2022-10-14T09:35:52.919Z,17.90
2022-10-14T09:38:24.046Z,17.91
2022-10-14T09:40:59.843Z,17.87
2022-10-14T09:43:31.142Z,17.82
2022-10-14T09:46:02.339Z,17.79
2022-10-14T09:48:40.797Z,17.75
2022-10-14T09:51:20.920Z,17.68
2022-10-14T09:53:56.319Z,17.61
2022-10-14T09:56:44.363Z,17.56
2022-10-14T09:59:33.400Z,17.48
2022-10-14T10:02:06.722Z,17.40
2022-10-14T10:04:48.955Z,17.37
2022-10-14T10:07:36.912Z,17.30
2022-10-14T10:10:21.677Z,17.25
2022-10-14T10:12:52.181Z,17.20
2022-10-14T10:15:23.583Z,17.16
2022-10-14T10:17:54.468Z,17.12
2022-10-14T10:20:34.523Z,17.09
2022-10-14T10:23:26.753Z,17.05
2022-10-14T10:25:57.412Z,17.01
2022-10-14T10:28:34.660Z,16.98
2022-10-14T10:31:33.608Z,16.94
2022-10-14T10:34:03.896Z,16.91
2022-10-14T10:36:39.470Z,16.87
2022-10-14T10:39:12.699Z,16.83
2022-10-14T10:41:46.024Z,16.80
2022-10-14T10:44:41.751Z,16.75
2022-10-14T10:47:39.248Z,16.74
2022-10-14T10:50:42.179Z,16.69
2022-10-14T10:53:12.316Z,16.65
2022-10-14T10:55:56.197Z,16.62
2022-10-14T10:58:38.502Z,16.60
2022-10-14T11:01:48.300Z,16.56
2022-10-14T11:04:27.874Z,16.53
2022-10-14T11:07:29.242Z,16.50
2022-10-14T11:10:20.103Z,16.46
2022-10-14T11:13:20.608Z,16.41
2022-10-14T11:15:59.702Z,16.37
2022-10-14T11:18:36.616Z,16.35
2022-10-14T11:21:31.075Z,16.30
2022-10-14T11:24:01.593Z,16.24
2022-10-14T11:29:36.860Z,16.16
2022-10-14T11:32:24.759Z,16.11
2022-10-14T11:35:19.907Z,16.06
2022-10-14T11:38:24.938Z,15.99
2022-10-14T11:41:30.750Z,15.92
2022-10-14T11:44:27.544Z,15.85
2022-10-14T11:47:01.337Z,15.77
2022-10-14T11:49:44.125Z,15.71
2022-10-14T11:52:24.642Z,15.67
2022-10-14T11:55:15.442Z,15.59
2022-10-14T11:58:16.637Z,15.56
2022-10-14T12:00:53.363Z,15.50
2022-10-14T12:03:49.834Z,15.46
2022-10-14T12:06:40.749Z,15.43
2022-10-14T12:09:27.152Z,15.40
2022-10-14T12:12:11.150Z,15.41
2022-10-14T12:14:44.934Z,15.38
2022-10-14T12:17:53.677Z,15.34
2022-10-14T12:20:50.771Z,15.31
2022-10-14T12:23:45.768Z,15.28
2022-10-14T12:26:22.077Z,15.25
2022-10-14T12:28:54.594Z,15.24
2022-10-14T12:31:28.991Z,15.23
2022-10-14T12:34:17.554Z,15.18
2022-10-14T12:36:52.134Z,15.13
2022-10-14T12:39:22.831Z,15.11
2022-10-14T12:41:57.948Z,15.06
2022-10-14T12:44:49.959Z,15.00
2022-10-14T12:47:21.915Z,14.98
2022-10-14T12:50:00.094Z,14.94
2022-10-14T12:52:37.236Z,14.90
2022-10-14T12:55:26.780Z,14.83
2022-10-14T12:57:56.519Z,14.80
2022-10-14T13:00:27.188Z,14.76
2022-10-14T13:03:06.021Z,14.72
2022-10-14T13:05:45.805Z,14.68
2022-10-14T13:08:22.617Z,14.61
2022-10-14T13:11:03.867Z,14.56
2022-10-14T13:13:50.669Z,14.52
2022-10-14T13:16:27.867Z,14.50
2022-10-14T13:19:02.308Z,14.47
2022-10-14T13:21:54.395Z,14.44
2022-10-14T13:24:28.106Z,14.40
2022-10-14T13:26:58.635Z,14.37
2022-10-14T13:29:38.387Z,14.33
2022-10-14T13:32:33.302Z,14.29
2022-10-14T13:35:19.116Z,14.24
2022-10-14T13:38:15.081Z,14.18
2022-10-14T13:40:53.342Z,14.16
2022-10-14T13:43:45.061Z,14.13
2022-10-14T13:46:21.979Z,14.11
2022-10-14T13:49:00.345Z,14.09
2022-10-14T13:51:49.384Z,14.07
2022-10-14T13:54:28.242Z,14.04
2022-10-14T13:57:38.153Z,13.98
2022-10-14T14:02:51.659Z,13.91
2022-10-14T14:05:37.908Z,13.87
2022-10-14T14:11:17.200Z,13.82
2022-10-14T14:14:00.739Z,13.75
2022-10-14T14:16:36.567Z,13.69
2022-10-14T14:19:10.197Z,13.64
2022-10-14T14:21:41.427Z,13.60
2022-10-14T14:24:26.749Z,13.58
2022-10-14T14:26:58.630Z,13.55
2022-10-14T14:29:35.157Z,13.55
2022-10-14T14:32:08.287Z,13.54
2022-10-14T14:34:41.292Z,13.52
2022-10-14T14:37:54.622Z,13.50
2022-10-14T14:40:28.943Z,13.49
2022-10-14T14:43:05.549Z,13.45
2022-10-14T14:45:48.018Z,13.42
2022-10-14T14:48:20.584Z,13.40
2022-10-14T14:50:51.584Z,13.39
2022-10-14T14:53:31.542Z,13.39
2022-10-14T14:56:10.425Z,13.36
2022-10-14T14:58:57.652Z,13.31
2022-10-14T15:01:29.440Z,13.30
2022-10-14T15:04:12.314Z,13.27
2022-10-14T15:07:00.258Z,13.22
2022-10-14T15:09:46.190Z,13.20
2022-10-14T15:12:28.094Z,13.20
2022-10-14T15:15:00.990Z,13.20
2022-10-14T15:17:46.942Z,13.20
2022-10-14T15:22:53.631Z,13.23
2022-10-14T15:25:30.127Z,13.24
2022-10-14T15:28:04.951Z,13.25
2022-10-14T15:30:54.255Z,13.23
2022-10-14T15:33:26.988Z,13.22
2022-10-14T15:36:00.417Z,13.18
2022-10-14T15:41:08.110Z,13.16
2022-10-14T15:43:41.433Z,13.17
2022-10-14T15:46:33.765Z,13.17
2022-10-14T15:49:07.391Z,13.16
2022-10-14T15:51:37.934Z,13.13
2022-10-14T15:54:14.194Z,13.11
2022-10-14T15:56:44.851Z,13.06
2022-10-14T15:59:17.656Z,13.02
2022-10-14T16:01:48.548Z,12.99
2022-10-14T16:04:23.796Z,12.97
2022-10-14T16:06:59.313Z,12.98
2022-10-14T16:09:30.196Z,12.98
2022-10-14T16:12:02.986Z,12.97
2022-10-14T16:14:33.802Z,12.94
2022-10-14T16:17:04.898Z,12.90
2022-10-14T16:19:36.043Z,12.87
2022-10-14T16:22:10.440Z,12.84
2022-10-14T16:24:41.513Z,12.78
2022-10-14T16:27:12.139Z,12.73
2022-10-14T16:29:42.524Z,12.70
2022-10-14T16:32:15.184Z,12.68
2022-10-14T16:34:45.422Z,12.67
2022-10-14T16:37:15.841Z,12.66
2022-10-14T16:39:46.422Z,12.66
2022-10-14T16:44:51.846Z,12.67
2022-10-14T16:47:23.901Z,12.68
2022-10-14T16:49:56.211Z,12.65
2022-10-14T16:52:26.138Z,12.63
2022-10-14T16:54:56.674Z,12.58
2022-10-14T16:57:27.756Z,12.55
2022-10-14T16:59:58.732Z,12.50
2022-10-14T17:02:33.351Z,12.48
2022-10-14T17:05:03.704Z,12.43
2022-10-14T17:07:35.373Z,12.39
2022-10-14T17:10:06.552Z,12.38
2022-10-14T17:12:36.930Z,12.35
2022-10-14T17:15:08.342Z,12.34
2022-10-14T17:17:41.380Z,12.32
2022-10-14T17:20:12.324Z,12.27
2022-10-14T17:22:42.509Z,12.26
2022-10-14T17:25:12.789Z,12.21
2022-10-14T17:27:42.924Z,12.20
2022-10-14T17:30:14.094Z,12.17
2022-10-14T17:32:44.335Z,12.13
2022-10-14T17:35:15.392Z,12.12
2022-10-14T17:37:46.638Z,12.08
2022-10-14T17:40:17.062Z,12.05
2022-10-14T17:42:47.312Z,12.03
2022-10-14T17:45:17.835Z,11.99
2022-10-14T17:47:47.869Z,12.01
2022-10-14T17:50:18.515Z,11.99
2022-10-14T17:52:49.310Z,11.98
2022-10-14T17:55:19.981Z,11.96
2022-10-14T17:57:50.457Z,11.95
2022-10-14T18:00:20.760Z,11.93
2022-10-14T18:02:50.898Z,11.95
2022-10-14T18:05:22.211Z,11.94
2022-10-14T18:07:53.560Z,11.92
2022-10-14T18:10:25.217Z,11.88
2022-10-14T18:12:55.803Z,11.88
2022-10-14T18:15:28.631Z,11.87
2022-10-14T18:17:59.649Z,11.85
2022-10-14T18:20:30.369Z,11.82
2022-10-14T18:23:04.135Z,11.80
2022-10-14T18:25:38.407Z,11.78
2022-10-14T18:28:09.217Z,11.74
2022-10-14T18:30:40.102Z,11.72
2022-10-14T18:33:10.529Z,11.71
2022-10-14T18:35:43.027Z,11.70
2022-10-14T18:38:15.537Z,11.67
2022-10-14T18:40:45.744Z,11.66
2022-10-14T18:43:15.834Z,11.67
2022-10-14T18:45:45.894Z,11.68
2022-10-14T18:48:17.083Z,11.67
2022-10-14T18:50:46.833Z,11.66
2022-10-14T18:53:16.880Z,11.66
2022-10-14T18:55:46.947Z,11.66
2022-10-14T18:58:17.093Z,11.67
2022-10-14T19:00:47.985Z,11.64
2022-10-14T19:03:18.647Z,11.59
2022-10-14T19:05:49.319Z,11.56
2022-10-14T19:08:20.345Z,11.53
2022-10-14T19:10:50.611Z,11.51
2022-10-14T19:13:20.793Z,11.49
2022-10-14T19:15:55.215Z,11.48
2022-10-14T19:18:25.236Z,11.47
2022-10-14T19:20:58.064Z,11.46
2022-10-14T19:23:28.406Z,11.46
2022-10-14T19:26:00.591Z,11.47
2022-10-14T19:28:30.718Z,11.43
2022-10-14T19:31:01.012Z,11.41
2022-10-14T19:33:31.116Z,11.41
2022-10-14T19:36:02.581Z,11.37
2022-10-14T19:38:32.957Z,11.33
2022-10-14T19:41:05.010Z,11.29
2022-10-14T19:43:36.839Z,11.30
2022-10-14T19:46:12.175Z,11.28
2022-10-14T19:48:42.397Z,11.26
2022-10-14T19:51:12.568Z,11.23
2022-10-14T19:53:43.437Z,11.22
2022-10-14T19:56:15.061Z,11.18
2022-10-14T19:58:45.738Z,11.15
2022-10-14T20:01:18.822Z,11.14
2022-10-14T20:03:50.424Z,11.14
2022-10-14T20:06:21.758Z,11.15
2022-10-14T20:08:52.628Z,11.16
2022-10-14T20:11:25.701Z,11.16
2022-10-14T20:13:55.887Z,11.16
2022-10-14T20:16:25.451Z,11.17
2022-10-14T20:18:56.185Z,11.15
2022-10-14T20:21:28.059Z,11.13
2022-10-14T20:23:59.462Z,11.11
2022-10-14T20:26:29.734Z,11.09
2022-10-14T20:28:59.869Z,11.06
2022-10-14T20:31:30.160Z,11.03
2022-10-14T20:34:00.410Z,10.99
2022-10-14T20:36:30.679Z,10.99
2022-10-14T20:39:00.865Z,10.97
2022-10-14T20:41:31.718Z,10.96
2022-10-14T20:44:02.286Z,10.94
2022-10-14T20:46:33.015Z,10.92
2022-10-14T20:49:03.489Z,10.91
2022-10-14T20:51:33.750Z,10.89
2022-10-14T20:54:07.231Z,10.88
2022-10-14T20:56:40.105Z,10.84
2022-10-14T20:59:13.928Z,10.84
2022-10-14T21:01:44.480Z,10.82
2022-10-14T21:04:14.625Z,10.78
2022-10-14T21:06:44.720Z,10.74
2022-10-14T21:09:14.871Z,10.71
2022-10-14T21:11:46.015Z,10.71
2022-10-14T21:14:18.750Z,10.72
2022-10-14T21:16:48.998Z,10.73
2022-10-14T21:19:18.986Z,10.75
2022-10-14T21:21:53.115Z,10.76
2022-10-14T21:24:24.167Z,10.78
2022-10-14T21:26:55.871Z,10.77
2022-10-14T21:29:28.318Z,10.76
2022-10-14T21:31:58.927Z,10.74
2022-10-14T21:34:29.753Z,10.73
2022-10-14T21:37:00.033Z,10.72
2022-10-14T21:39:30.580Z,10.70
2022-10-14T21:42:00.755Z,10.71
2022-10-14T21:44:30.871Z,10.73
2022-10-14T21:47:01.170Z,10.72
2022-10-14T21:49:31.606Z,10.69
2022-10-14T21:52:01.770Z,10.69
2022-10-14T21:54:32.318Z,10.68
2022-10-14T21:57:03.101Z,10.67
2022-10-14T21:59:36.429Z,10.66
2022-10-14T22:02:07.046Z,10.66
2022-10-14T22:04:38.311Z,10.65
2022-10-14T22:07:11.676Z,10.65
2022-10-14T22:09:42.419Z,10.65
2022-10-14T22:12:13.593Z,10.65
2022-10-14T22:14:44.009Z,10.66
2022-10-14T22:17:14.783Z,10.67
2022-10-14T22:19:44.965Z,10.67
2022-10-14T22:22:15.542Z,10.64
2022-10-14T22:24:45.757Z,10.64
2022-10-14T22:27:15.846Z,10.61
2022-10-14T22:29:45.887Z,10.57
2022-10-14T22:32:16.920Z,10.56
2022-10-14T22:34:49.728Z,10.56
2022-10-14T22:37:20.543Z,10.56
2022-10-14T22:39:51.190Z,10.53
2022-10-14T22:42:21.723Z,10.53
2022-10-14T22:44:51.984Z,10.53
2022-10-14T22:47:22.489Z,10.53
2022-10-14T22:49:52.818Z,10.53
2022-10-14T22:52:23.507Z,10.55
2022-10-14T22:54:54.239Z,10.58
2022-10-14T22:57:24.064Z,10.60
2022-10-14T22:59:54.417Z,10.60
2022-10-14T23:02:24.962Z,10.60
2022-10-14T23:04:55.864Z,10.57
2022-10-14T23:07:26.542Z,10.55
2022-10-14T23:09:56.995Z,10.55
2022-10-14T23:12:27.441Z,10.57
2022-10-14T23:14:57.492Z,10.57
2022-10-14T23:17:27.589Z,10.57
2022-10-14T23:19:58.243Z,10.56
2022-10-14T23:22:29.520Z,10.54
2022-10-14T23:24:59.082Z,10.57
2022-10-14T23:27:32.811Z,10.58
2022-10-14T23:30:06.482Z,10.61
2022-10-14T23:32:36.594Z,10.64
2022-10-14T23:35:07.165Z,10.69
2022-10-14T23:37:37.248Z,10.75
2022-10-14T23:40:07.893Z,10.81
2022-10-14T23:42:38.058Z,10.83
2022-10-14T23:45:10.065Z,10.85
2022-10-14T23:47:40.404Z,10.88
2022-10-14T23:50:10.791Z,10.91
2022-10-14T23:52:41.236Z,10.95
2022-10-14T23:55:12.202Z,11.01
2022-10-14T23:57:43.178Z,11.05
